Time;durP1;ratioP1;P1;durP2;ratioP2;P2;SDS_P1;SDS_P2;PMS_P1;PMS_P2;Temp;Humidity;BMP_temperature;BMP_pressure;BME280_temperature;BME280_humidity;BME280_pressure;Samples;Min_cycle;Max_cycle;Signal;HPM_P1;HPM_P2
2021/09/21 00:01:04;;;;;;;7.47;6.70;;;;;;;13.61;65.33;101834.09;6182690;23;20185;-59
2021/09/21 00:03:30;;;;;;;8.80;7.17;;;;;;;13.64;64.76;101834.06;6180753;23;20160;-59
2021/09/21 00:05:55;;;;;;;7.53;6.80;;;;;;;13.69;64.68;101846.72;6183033;23;20166;-58
2021/09/21 00:08:21;;;;;;;7.97;7.17;;;;;;;13.65;64.52;101838.41;6182393;23;20626;-59
2021/09/21 00:10:46;;;;;;;7.30;6.60;;;;;;;13.62;64.55;101832.91;6182639;23;20151;-59
2021/09/21 00:13:12;;;;;;;7.30;6.60;;;;;;;13.67;63.46;101838.78;6182591;23;20165;-59
2021/09/21 00:15:37;;;;;;;8.43;6.90;;;;;;;13.72;63.36;101843.06;6182722;23;20179;-59
2021/09/21 00:18:03;;;;;;;8.20;7.27;;;;;;;13.68;63.80;101842.34;6182641;23;20151;-60
2021/09/21 00:20:28;;;;;;;6.90;6.27;;;;;;;13.72;63.08;101846.63;6182395;23;20151;-60
2021/09/21 00:22:54;;;;;;;8.03;7.23;;;;;;;13.67;63.27;101846.31;6182710;23;20147;-59
2021/09/21 00:25:19;;;;;;;7.40;6.67;;;;;;;13.67;63.17;101837.97;6182919;23;20226;-59
2021/09/21 00:27:45;;;;;;;7.07;6.37;;;;;;;13.67;63.16;101841.56;6182099;23;20203;-59
2021/09/21 00:30:13;;;;;;;8.87;6.60;;;;;;;13.72;63.08;101834.69;6182544;23;20155;-59
2021/09/21 00:32:41;;;;;;;7.43;6.67;;;;;;;13.66;63.26;101839.19;6182673;23;20156;-60
2021/09/21 00:35:07;;;;;;;7.40;6.70;;;;;;;13.63;63.43;101832.47;6182407;23;20158;-60
2021/09/21 00:37:32;;;;;;;7.57;6.87;;;;;;;13.33;63.48;101785.22;6182241;23;20146;-60
2021/09/21 00:39:58;;;;;;;7.27;6.57;;;;;;;13.69;63.36;101821.63;6180821;23;20508;-60
2021/09/21 00:42:29;;;;;;;7.13;6.30;;;;;;;13.64;63.46;101830.47;6182462;23;20285;-60
2021/09/21 00:45:01;;;;;;;7.10;6.40;;;;;;;13.64;63.13;101824.91;6180276;23;20240;-60
2021/09/21 00:47:27;;;;;;;8.10;7.17;;;;;;;13.54;63.44;101815.53;6180505;23;20184;-60
2021/09/21 00:49:53;;;;;;;7.73;7.00;;;;;;;13.61;63.27;101823.75;6181891;23;20161;-59
2021/09/21 00:52:19;;;;;;;7.50;6.80;;;;;;;13.54;63.52;101817.53;6182523;23;20234;-60
2021/09/21 00:54:44;;;;;;;8.27;6.67;;;;;;;13.26;63.68;101790.13;6182522;23;20154;-60
2021/09/21 00:57:10;;;;;;;7.37;6.57;;;;;;;13.51;63.66;101823.94;6181634;23;20168;-59
2021/09/21 00:59:36;;;;;;;8.13;7.33;;;;;;;13.48;63.56;101828.34;6182515;23;20441;-60
2021/09/21 01:02:02;;;;;;;9.23;7.70;;;;;;;13.19;63.59;101779.91;6182141;23;20413;-60
2021/09/21 01:04:27;;;;;;;7.97;7.03;;;;;;;13.52;63.59;101820.72;6182573;23;20155;-59
2021/09/21 01:06:53;;;;;;;8.50;7.70;;;;;;;13.34;63.44;101802.75;6181795;23;20159;-60
2021/09/21 01:09:21;;;;;;;9.57;7.40;;;;;;;13.49;63.46;101832.72;6180836;23;20183;-60
2021/09/21 01:11:52;;;;;;;8.17;7.37;;;;;;;13.45;63.57;101836.75;6182285;23;20727;-59
2021/09/21 01:14:18;;;;;;;8.47;7.50;;;;;;;13.46;63.53;101850.25;6182855;23;20484;-59
2021/09/21 01:16:44;;;;;;;11.07;7.20;;;;;;;13.59;63.43;101856.03;6182158;23;20234;-60
2021/09/21 01:19:12;;;;;;;8.97;8.07;;;;;;;13.62;63.39;101853.19;6182209;23;20163;-59
2021/09/21 01:21:38;;;;;;;9.10;7.97;;;;;;;13.58;63.29;101860.81;6182030;23;20152;-59
2021/09/21 01:24:04;;;;;;;9.13;7.67;;;;;;;13.63;63.35;101856.75;6182378;23;20153;-60
2021/09/21 01:26:30;;;;;;;9.47;7.83;;;;;;;13.47;63.05;101821.19;6182143;23;20230;-59
2021/09/21 01:28:55;;;;;;;8.50;7.60;;;;;;;13.48;63.27;101841.50;6182117;23;20601;-60
2021/09/21 01:31:21;;;;;;;9.47;7.67;;;;;;;13.63;63.13;101862.34;6182268;23;20222;-60
2021/09/21 01:33:49;;;;;;;8.13;7.33;;;;;;;13.71;62.84;101867.34;6182495;23;20156;-60
2021/09/21 01:36:16;;;;;;;8.33;7.43;;;;;;;13.68;62.62;101870.22;6182272;23;20159;-59
2021/09/21 01:38:42;;;;;;;8.90;8.00;;;;;;;13.62;62.82;101872.69;6181936;23;20597;-59
2021/09/21 01:41:07;;;;;;;8.40;7.60;;;;;;;13.58;63.37;101871.94;6181680;23;20221;-59
2021/09/21 01:43:33;;;;;;;9.53;8.37;;;;;;;13.65;62.98;101873.81;6182368;23;20601;-59
2021/09/21 01:45:58;;;;;;;8.80;7.60;;;;;;;13.56;63.28;101870.78;6181866;23;20153;-59
2021/09/21 01:48:24;;;;;;;9.60;8.33;;;;;;;13.37;63.25;101844.44;6181970;23;20203;-59
2021/09/21 01:53:41;;;;;;;9.70;8.63;;;;;;;13.52;63.29;101870.09;6182548;23;20613;-60
2021/09/21 01:58:51;;;;;;;9.03;8.13;;;;;;;13.54;63.29;101865.66;6183984;23;20148;-60
2021/09/21 02:01:21;;;;;;;10.30;7.83;;;;;;;13.50;63.46;101866.91;6183735;23;20157;-60
2021/09/21 02:03:49;;;;;;;9.07;8.17;;;;;;;13.56;63.19;101876.34;6183963;23;20231;-59
2021/09/21 02:06:15;;;;;;;9.70;8.70;;;;;;;13.45;63.00;101868.19;6184216;23;20236;-60
2021/09/21 02:08:41;;;;;;;10.33;8.47;;;;;;;13.49;63.16;101882.06;6183295;23;20226;-60
2021/09/21 02:11:07;;;;;;;11.37;9.23;;;;;;;13.54;63.31;101887.94;6183647;23;20149;-59
2021/09/21 02:13:33;;;;;;;10.13;8.43;;;;;;;13.49;63.32;101877.28;6183972;23;20183;-59
2021/09/21 02:15:59;;;;;;;9.20;8.30;;;;;;;13.55;62.99;101883.16;6182130;23;20618;-60
2021/09/21 02:18:24;;;;;;;10.13;8.53;;;;;;;13.55;63.43;101888.72;6182063;23;20233;-60
2021/09/21 02:20:51;;;;;;;9.90;8.90;;;;;;;13.26;62.83;101843.03;6183252;23;20239;-60
2021/09/21 02:23:17;;;;;;;10.47;9.37;;;;;;;13.51;63.27;101883.22;6184490;23;20600;-60
2021/09/21 02:25:43;;;;;;;10.27;9.17;;;;;;;13.53;63.20;101885.56;6183879;23;20162;-60
2021/09/21 02:28:08;;;;;;;11.03;9.83;;;;;;;13.52;63.41;101878.44;6183344;23;20179;-60
2021/09/21 02:30:35;;;;;;;10.37;9.30;;;;;;;13.47;63.33;101881.69;6183581;23;20158;-60
2021/09/21 02:33:01;;;;;;;10.87;9.77;;;;;;;13.50;63.37;101890.00;6183433;23;20609;-59
2021/09/21 02:35:27;;;;;;;10.50;9.40;;;;;;;13.40;63.55;101890.16;6181973;23;20236;-59
2021/09/21 02:37:53;;;;;;;11.53;9.80;;;;;;;13.36;63.61;101887.41;6183031;23;20180;-59
2021/09/21 02:40:19;;;;;;;12.10;10.03;;;;;;;13.39;63.30;101880.22;6183539;23;20154;-60
2021/09/21 02:42:44;;;;;;;10.10;9.10;;;;;;;13.43;63.84;101883.75;6183349;23;20197;-60
2021/09/21 02:45:11;;;;;;;11.13;10.00;;;;;;;13.34;63.85;101889.84;6183255;23;20156;-59
2021/09/21 02:47:37;;;;;;;11.83;10.63;;;;;;;13.31;63.84;101887.09;6183150;23;20207;-59
2021/09/21 02:50:05;;;;;;;11.47;10.30;;;;;;;13.38;63.74;101895.34;6183160;23;20150;-60
2021/09/21 02:52:30;;;;;;;11.73;10.47;;;;;;;13.45;63.67;101889.66;6183690;23;20247;-59
2021/09/21 02:54:56;;;;;;;11.43;10.27;;;;;;;13.48;63.39;101889.59;6183110;23;20234;-59
2021/09/21 02:57:21;;;;;;;11.43;10.23;;;;;;;13.49;63.24;101895.97;6182965;23;20147;-59
2021/09/21 02:59:47;;;;;;;11.57;10.37;;;;;;;13.33;63.85;101877.09;6183432;23;20156;-59
2021/09/21 03:02:12;;;;;;;11.70;10.60;;;;;;;13.33;63.55;101874.31;6182990;23;20218;-60
2021/09/21 03:04:42;;;;;;;11.70;10.50;;;;;;;13.51;64.25;101897.13;6183484;23;20150;-60
2021/09/21 03:07:15;;;;;;;12.53;11.23;;;;;;;13.52;64.21;101900.72;6180901;23;20159;-59
2021/09/21 03:17:26;;;;;;;13.77;10.80;;;;;;;13.56;63.53;101893.06;6183116;23;20197;-59
2021/09/21 03:19:57;;;;;;;12.33;11.10;;;;;;;13.52;63.52;101909.06;6182971;23;20161;-60
2021/09/21 03:22:22;;;;;;;12.50;11.20;;;;;;;13.50;63.85;101905.91;6182980;23;20168;-60
2021/09/21 03:24:49;;;;;;;11.80;10.60;;;;;;;13.29;63.13;101878.38;6183273;23;20171;-59
2021/09/21 03:27:16;;;;;;;14.63;11.10;;;;;;;13.09;63.66;101871.91;6181386;23;20272;-59
2021/09/21 03:29:41;;;;;;;13.10;11.07;;;;;;;13.29;64.19;101923.72;6183227;23;20515;-59
2021/09/21 03:32:07;;;;;;;11.60;10.40;;;;;;;13.05;64.48;101894.25;6181297;23;20243;-60
2021/09/21 03:34:34;;;;;;;11.80;10.60;;;;;;;13.24;64.26;101937.31;6182899;23;20162;-60
2021/09/21 03:37:00;;;;;;;9.00;8.10;;;;;;;12.97;65.02;101920.56;6182434;23;20501;-59
2021/09/21 03:39:25;;;;;;;13.70;10.60;;;;;;;13.11;64.61;101947.44;6183206;23;20543;-59
2021/09/21 03:41:51;;;;;;;12.00;10.87;;;;;;;13.20;64.13;101953.28;6180610;23;20205;-60
2021/09/21 03:44:16;;;;;;;12.43;10.70;;;;;;;13.13;64.30;101959.75;6183196;23;20173;-59
2021/09/21 03:46:42;;;;;;;12.30;11.10;;;;;;;13.08;64.53;101957.44;6182495;23;20508;-60
2021/09/21 03:49:08;;;;;;;12.77;11.00;;;;;;;13.13;64.60;101964.50;6182699;23;20178;-60
2021/09/21 03:51:33;;;;;;;12.00;10.73;;;;;;;13.15;64.18;101959.31;6182449;23;20610;-59
2021/09/21 03:53:59;;;;;;;11.40;10.30;;;;;;;13.22;64.17;101962.78;6182767;23;20681;-60
2021/09/21 03:56:24;;;;;;;11.97;10.50;;;;;;;13.14;64.33;101957.72;6183027;23;20150;-59
2021/09/21 03:58:49;;;;;;;12.53;11.00;;;;;;;12.94;65.06;101937.28;6182334;23;20146;-59
2021/09/21 04:01:15;;;;;;;14.27;10.43;;;;;;;13.34;65.18;101965.03;6182884;23;20187;-60
2021/09/21 04:03:40;;;;;;;12.97;10.73;;;;;;;13.34;64.18;101976.16;6181034;23;20503;-59
2021/09/21 04:06:06;;;;;;;12.47;10.80;;;;;;;13.20;64.30;101954.06;6182722;23;20183;-59
2021/09/21 04:08:31;;;;;;;14.43;10.63;;;;;;;13.47;64.50;101984.75;6182398;23;20180;-59
2021/09/21 04:10:57;;;;;;;13.13;11.63;;;;;;;13.54;65.08;101985.44;6182222;23;20154;-59
2021/09/21 04:13:22;;;;;;;13.63;11.00;;;;;;;13.59;64.34;101986.94;6182851;23;20513;-60
2021/09/21 04:15:48;;;;;;;15.27;11.40;;;;;;;13.61;63.96;101987.31;6182407;23;20157;-59
2021/09/21 04:18:13;;;;;;;12.83;11.17;;;;;;;13.53;63.73;101977.50;6182517;23;20156;-59
2021/09/21 04:20:39;;;;;;;15.07;10.87;;;;;;;13.68;64.28;101984.44;6182320;23;20154;-59
2021/09/21 04:23:04;;;;;;;13.43;11.30;;;;;;;13.76;63.42;101983.91;6182162;23;20156;-59
2021/09/21 04:25:31;;;;;;;11.67;10.57;;;;;;;13.50;62.60;101961.59;6180985;23;20184;-59
2021/09/21 04:27:57;;;;;;;11.83;10.40;;;;;;;13.55;62.83;101961.13;6181906;23;20177;-60
2021/09/21 04:30:23;;;;;;;12.03;10.80;;;;;;;13.67;62.21;101996.75;6181772;23;20255;-59
2021/09/21 04:32:49;;;;;;;13.03;10.50;;;;;;;13.63;62.05;102001.63;6182031;23;20599;-59
2021/09/21 04:35:16;;;;;;;8.80;7.90;;;;;;;13.54;62.51;101992.97;6181606;23;20153;-59
2021/09/21 04:37:42;;;;;;;12.17;10.97;;;;;;;13.58;62.54;101990.94;6180852;23;20161;-59
2021/09/21 04:40:08;;;;;;;13.30;12.00;;;;;;;13.60;62.52;101978.16;6181097;23;20188;-59
2021/09/21 04:42:34;;;;;;;12.57;11.27;;;;;;;13.62;62.16;101975.75;6174867;23;20221;-59
2021/09/21 04:45:00;;;;;;;12.37;11.07;;;;;;;13.28;62.19;101918.56;6160865;23;20202;-59
2021/09/21 04:47:25;;;;;;;11.80;10.60;;;;;;;13.54;62.11;101976.28;6170195;23;20186;-61
2021/09/21 04:49:50;;;;;;;15.63;10.50;;;;;;;13.61;62.01;101973.38;6170469;23;20584;-59
2021/09/21 04:52:16;;;;;;;11.37;10.00;;;;;;;13.59;62.13;101984.16;6174004;23;20159;-59
2021/09/21 04:54:43;;;;;;;12.10;10.33;;;;;;;13.42;62.18;101955.34;6166408;23;20161;-59
2021/09/21 04:57:09;;;;;;;11.80;9.60;;;;;;;13.68;61.85;101995.56;6171899;23;20686;-59
2021/09/21 04:59:34;;;;;;;10.83;9.67;;;;;;;13.74;62.13;102003.00;6175448;23;20149;-59
2021/09/21 05:01:59;;;;;;;10.57;9.53;;;;;;;13.68;62.17;101990.75;6167365;23;20225;-59
2021/09/21 05:04:25;;;;;;;10.90;9.57;;;;;;;13.75;62.27;101987.09;6174255;23;20187;-58
2021/09/21 05:06:50;;;;;;;12.87;9.60;;;;;;;13.46;61.90;101936.59;6174864;23;20153;-59
2021/09/21 05:09:16;;;;;;;10.43;9.30;;;;;;;13.72;61.83;101988.72;6172275;23;20191;-59
2021/09/21 05:11:44;;;;;;;10.83;9.73;;;;;;;13.65;61.82;101971.31;6175028;23;20384;-59
2021/09/21 05:14:11;;;;;;;10.40;9.30;;;;;;;13.85;61.73;101997.28;6175416;23;20156;-59
2021/09/21 05:16:37;;;;;;;10.43;9.43;;;;;;;13.90;61.71;102007.97;6169471;23;20155;-60
2021/09/21 05:19:02;;;;;;;9.90;8.90;;;;;;;13.92;61.25;102011.91;6159221;23;20777;-59
2021/09/21 05:21:28;;;;;;;12.20;9.73;;;;;;;13.94;61.54;102017.84;6151715;23;20479;-59
2021/09/21 05:23:54;;;;;;;11.67;8.83;;;;;;;14.06;60.92;102022.03;6176186;23;20164;-59
2021/09/21 05:26:20;;;;;;;10.50;9.40;;;;;;;13.97;60.64;101996.69;6177372;23;20310;-59
2021/09/21 05:28:45;;;;;;;10.07;9.00;;;;;;;14.20;60.63;102005.13;6176620;23;20525;-59
2021/09/21 05:31:11;;;;;;;11.83;8.80;;;;;;;14.05;60.28;101981.44;6176720;23;20184;-59
2021/09/21 05:33:36;;;;;;;9.33;8.43;;;;;;;14.30;60.03;102010.50;6181844;23;20185;-59
2021/09/21 05:36:02;;;;;;;10.13;8.57;;;;;;;14.39;59.93;102018.34;6179476;23;20166;-59
2021/09/21 05:38:29;;;;;;;9.40;8.50;;;;;;;14.42;60.23;102014.69;6176783;23;20555;-59
2021/09/21 05:40:54;;;;;;;9.37;8.47;;;;;;;14.47;59.63;102023.38;6177868;23;20219;-59
2021/09/21 05:43:20;;;;;;;9.53;8.50;;;;;;;14.49;59.63;102025.72;6178140;23;20156;-59
2021/09/21 05:45:45;;;;;;;9.53;8.53;;;;;;;14.57;59.59;102016.00;6179581;23;20298;-59
2021/09/21 05:48:11;;;;;;;9.40;7.90;;;;;;;14.65;58.66;102018.25;6178396;23;20358;-60
2021/09/21 05:50:36;;;;;;;9.67;7.70;;;;;;;14.68;59.10;102009.03;6178157;23;20246;-58
2021/09/21 05:53:02;;;;;;;9.37;7.63;;;;;;;14.76;58.76;102021.59;6176890;23;20204;-59
2021/09/21 05:55:28;;;;;;;9.27;8.20;;;;;;;14.60;58.46;102002.00;6178332;23;20594;-58
2021/09/21 05:57:54;;;;;;;10.37;8.23;;;;;;;14.72;59.33;102034.88;6177206;23;20164;-59
2021/09/21 06:00:20;;;;;;;10.07;8.20;;;;;;;14.86;59.41;102034.56;6178100;23;20160;-59
2021/09/21 06:02:46;;;;;;;8.53;7.67;;;;;;;14.97;59.27;102032.38;6179188;23;20609;-59
2021/09/21 06:05:12;;;;;;;8.67;7.87;;;;;;;14.78;58.84;101996.06;6179273;23;20212;-59
2021/09/21 06:07:48;;;;;;;8.30;7.27;;;;;;;15.02;58.74;102025.50;6178455;23;20185;-58
2021/09/21 06:10:16;;;;;;;9.17;7.83;;;;;;;14.90;58.11;102007.38;6179826;23;20207;-59
2021/09/21 06:12:41;;;;;;;15.27;7.60;;;;;;;15.15;58.36;102023.63;6180264;23;20163;-58
2021/09/21 06:15:07;;;;;;;9.20;7.37;;;;;;;15.09;57.91;102016.97;6178766;23;20185;-59
2021/09/21 06:17:32;;;;;;;10.30;7.57;;;;;;;15.31;57.60;102037.69;6179133;23;20710;-59
2021/09/21 06:19:58;;;;;;;8.93;7.07;;;;;;;15.35;57.77;102044.81;6179272;23;20187;-59
2021/09/21 06:22:23;;;;;;;9.33;6.77;;;;;;;15.38;56.77;102046.72;6177769;23;20504;-59
2021/09/21 06:24:49;;;;;;;7.50;6.70;;;;;;;15.35;56.90;102038.41;6176441;23;20561;-61
2021/09/21 06:27:14;;;;;;;9.57;7.40;;;;;;;15.28;57.24;102027.38;6175862;23;20156;-59
2021/09/21 06:29:40;;;;;;;7.57;6.87;;;;;;;15.41;56.62;102028.31;6178886;23;20180;-59
2021/09/21 06:32:05;;;;;;;9.00;6.40;;;;;;;15.46;55.78;102042.56;6180095;23;20160;-59
2021/09/21 06:34:31;;;;;;;7.83;6.27;;;;;;;15.53;56.01;102039.59;6179711;23;20161;-59
2021/09/21 06:36:57;;;;;;;8.23;6.27;;;;;;;15.69;55.40;102050.06;6171576;23;20180;-60
2021/09/21 06:39:22;;;;;;;8.87;6.33;;;;;;;15.64;56.11;102053.34;6175612;23;20277;-59
2021/09/21 06:41:48;;;;;;;7.57;6.87;;;;;;;15.67;56.13;102058.88;6172841;23;20240;-59
2021/09/21 06:44:14;;;;;;;8.33;7.50;;;;;;;15.77;56.48;102052.25;6174043;23;20149;-59
2021/09/21 06:46:39;;;;;;;10.00;7.13;;;;;;;15.80;56.41;102054.19;6173358;23;20164;-59
2021/09/21 06:49:05;;;;;;;7.10;6.37;;;;;;;15.99;53.94;102070.09;6178533;23;20242;-61
2021/09/21 06:51:31;;;;;;;7.10;6.33;;;;;;;16.13;54.23;102063.41;6178370;23;20148;-59
2021/09/21 06:53:57;;;;;;;8.37;7.50;;;;;;;16.18;53.84;102074.84;6176129;23;20552;-59
2021/09/21 06:56:28;;;;;;;7.63;6.50;;;;;;;16.30;54.07;102074.16;6178738;23;20224;-59
2021/09/21 06:58:55;;;;;;;6.37;5.53;;;;;;;16.30;54.02;102076.19;6178518;23;20609;-59
2021/09/21 07:01:21;;;;;;;7.23;6.10;;;;;;;16.21;53.34;102046.03;6178620;23;20468;-59
2021/09/21 07:03:46;;;;;;;7.23;6.23;;;;;;;16.45;53.54;102078.19;6178310;23;20162;-59
2021/09/21 07:06:12;;;;;;;8.57;6.10;;;;;;;16.46;52.87;102084.59;6179806;23;20799;-59
2021/09/21 07:08:38;;;;;;;9.43;6.43;;;;;;;16.40;53.42;102066.75;6179268;23;20326;-60
2021/09/21 07:11:03;;;;;;;6.73;6.03;;;;;;;16.33;52.44;102036.91;6179666;23;20666;-59
2021/09/21 07:13:29;;;;;;;8.00;6.40;;;;;;;16.63;52.75;102081.34;6178328;23;20613;-59
2021/09/21 07:15:54;;;;;;;7.07;6.17;;;;;;;16.77;53.44;102088.59;6179586;23;20157;-59
2021/09/21 07:18:20;;;;;;;6.67;5.70;;;;;;;16.80;52.74;102085.69;6177986;23;20173;-59
2021/09/21 07:20:45;;;;;;;7.87;5.90;;;;;;;16.89;51.75;102088.66;6166449;23;20161;-59
2021/09/21 07:23:11;;;;;;;7.27;6.50;;;;;;;16.85;52.65;102096.34;6174766;23;20506;-59
2021/09/21 07:25:36;;;;;;;8.50;6.50;;;;;;;16.96;52.01;102096.84;6180585;23;20149;-59
2021/09/21 07:28:03;;;;;;;6.43;5.83;;;;;;;16.91;51.57;102096.63;6179988;23;20281;-59
2021/09/21 07:30:33;;;;;;;6.90;6.10;;;;;;;16.81;52.10;102083.69;6177673;23;20155;-59
2021/09/21 07:32:58;;;;;;;8.03;6.00;;;;;;;17.01;51.06;102090.72;6179791;23;20183;-59
2021/09/21 07:35:24;;;;;;;7.10;6.20;;;;;;;16.93;51.97;102075.34;6180358;23;20596;-59
2021/09/21 07:37:50;;;;;;;6.50;5.90;;;;;;;17.26;52.45;102102.03;6179267;23;20155;-59
2021/09/21 07:40:19;;;;;;;8.53;5.80;;;;;;;17.41;51.96;102105.28;6178852;23;20232;-59
2021/09/21 07:42:44;;;;;;;7.17;6.00;;;;;;;17.37;51.03;102088.50;6165549;23;20253;-59
2021/09/21 07:45:11;;;;;;;9.13;5.70;;;;;;;17.51;49.84;102095.75;6175199;23;20156;-59
2021/09/21 07:47:36;;;;;;;11.37;5.97;;;;;;;17.52;49.83;102108.56;6167736;23;20334;-59
2021/09/21 07:50:04;;;;;;;7.90;5.93;;;;;;;17.40;49.69;102070.03;6170830;23;20482;-59
2021/09/21 07:52:30;;;;;;;6.57;5.83;;;;;;;17.63;50.14;102092.97;6178986;23;20447;-59
2021/09/21 07:54:56;;;;;;;8.10;6.10;;;;;;;17.43;49.16;102060.75;6176915;23;20168;-59
2021/09/21 07:57:21;;;;;;;7.20;5.53;;;;;;;17.79;49.15;102108.94;6176069;23;20158;-59
2021/09/21 07:59:47;;;;;;;6.93;5.77;;;;;;;17.85;49.45;102093.13;6178127;23;20157;-59
2021/09/21 08:02:13;;;;;;;6.33;5.60;;;;;;;17.91;48.16;102107.41;6177878;23;20238;-59
2021/09/21 08:04:39;;;;;;;7.47;5.37;;;;;;;17.87;47.94;102107.50;6178561;23;20182;-59
2021/09/21 08:07:05;;;;;;;9.50;6.00;;;;;;;17.94;48.93;102101.66;6177818;23;20647;-59
2021/09/21 08:09:31;;;;;;;5.97;5.37;;;;;;;18.04;48.65;102106.94;6158940;23;20299;-58
2021/09/21 08:11:57;;;;;;;7.37;5.87;;;;;;;18.15;48.88;102098.19;6177700;23;20184;-59
2021/09/21 08:14:22;;;;;;;6.50;5.23;;;;;;;18.31;47.26;102105.72;6178624;23;20481;-58
2021/09/21 08:16:48;;;;;;;5.20;4.70;;;;;;;18.17;45.06;102095.72;6175397;23;20153;-59
2021/09/21 08:19:14;;;;;;;5.67;4.80;;;;;;;17.94;46.05;102119.25;6177134;23;20176;-59
2021/09/21 08:21:40;;;;;;;5.43;4.70;;;;;;;17.90;44.87;102120.63;6177755;23;20163;-59
2021/09/21 08:24:06;;;;;;;5.47;4.97;;;;;;;17.94;46.24;102113.66;6177559;23;20160;-58
2021/09/21 08:26:33;;;;;;;5.20;4.40;;;;;;;17.92;45.28;102116.13;6176365;23;20150;-59
2021/09/21 08:28:58;;;;;;;7.47;4.90;;;;;;;18.02;45.56;102120.63;6175956;23;20184;-59
2021/09/21 08:31:24;;;;;;;7.30;4.83;;;;;;;18.15;46.41;102117.84;6178525;23;20218;-59
2021/09/21 08:33:50;;;;;;;6.53;4.63;;;;;;;18.29;45.27;102120.19;6175680;23;20506;-59
2021/09/21 08:36:15;;;;;;;9.77;4.67;;;;;;;18.27;41.97;102113.47;6177046;23;20165;-59
2021/09/21 08:38:41;;;;;;;4.80;4.13;;;;;;;18.22;44.17;102116.84;6176861;23;20266;-59
2021/09/21 08:41:06;;;;;;;5.47;4.47;;;;;;;18.24;43.47;102124.34;6176739;23;20200;-59
2021/09/21 08:43:32;;;;;;;5.23;4.50;;;;;;;18.15;44.35;102101.00;6174485;23;20159;-59
2021/09/21 08:45:58;;;;;;;6.43;4.53;;;;;;;18.28;43.01;102121.44;6177260;23;20163;-59
2021/09/21 08:48:30;;;;;;;6.03;4.87;;;;;;;18.26;44.41;102095.06;6175721;23;20187;-59
2021/09/21 08:50:56;;;;;;;6.17;4.53;;;;;;;18.38;42.98;102083.06;6177193;23;20176;-60
2021/09/21 08:53:22;;;;;;;6.73;5.70;;;;;;;18.67;42.89;102104.13;6175740;23;20160;-60
2021/09/21 08:55:48;;;;;;;6.90;4.40;;;;;;;18.86;42.05;102107.88;6175013;23;20168;-60
2021/09/21 08:58:13;;;;;;;5.93;4.70;;;;;;;19.15;42.26;102112.06;6177217;23;20159;-60
2021/09/21 09:00:39;;;;;;;5.73;4.23;;;;;;;19.20;40.34;102117.13;6176555;23;20562;-60
2021/09/21 09:03:11;;;;;;;6.53;4.13;;;;;;;19.14;40.63;102099.25;6177306;23;20160;-61
2021/09/21 09:05:47;;;;;;;5.40;4.43;;;;;;;19.32;40.77;102119.09;6176429;23;20156;-60
2021/09/21 09:08:13;;;;;;;5.27;4.50;;;;;;;19.22;41.97;102125.09;6177833;23;20184;-60
2021/09/21 09:10:39;;;;;;;7.67;4.13;;;;;;;18.94;39.07;102079.09;6180370;23;20184;-60
2021/09/21 09:13:16;;;;;;;4.93;4.17;;;;;;;19.11;39.59;102105.00;6180677;23;20219;-60
2021/09/21 09:15:50;;;;;;;5.60;4.07;;;;;;;18.89;40.08;102088.09;6181079;23;20133;-60
2021/09/21 09:18:23;;;;;;;4.90;4.40;;;;;;;18.86;40.98;102094.63;6180979;23;20147;-60
2021/09/21 09:20:48;;;;;;;6.00;4.23;;;;;;;19.09;41.83;102107.50;6177520;23;20147;-60
2021/09/21 09:23:13;;;;;;;5.23;4.20;;;;;;;19.29;42.16;102100.34;6181130;23;20160;-60
2021/09/21 09:25:43;;;;;;;6.93;4.20;;;;;;;19.13;39.05;102111.72;6180505;23;20219;-60
2021/09/21 09:28:23;;;;;;;4.93;4.17;;;;;;;19.17;40.33;102108.78;6178737;23;20187;-60
2021/09/21 09:30:51;;;;;;;5.40;4.30;;;;;;;19.01;40.44;102090.09;6180310;23;20283;-59
2021/09/21 09:33:17;;;;;;;4.70;4.20;;;;;;;19.17;40.87;102109.59;6180377;23;20157;-59
2021/09/21 09:35:44;;;;;;;6.60;4.60;;;;;;;19.16;39.42;102093.97;6180395;23;20153;-60
2021/09/21 09:38:15;;;;;;;5.57;3.80;;;;;;;19.66;38.71;102107.78;6181024;23;20149;-60
2021/09/21 09:40:55;;;;;;;5.67;4.00;;;;;;;19.72;36.07;102107.97;6180650;23;20158;-60
2021/09/21 09:43:27;;;;;;;8.20;4.13;;;;;;;19.52;38.23;102113.94;6175747;23;20228;-60
2021/09/21 09:45:55;;;;;;;7.20;4.60;;;;;;;19.47;40.81;102120.16;6179741;23;20180;-60
2021/09/21 09:48:23;;;;;;;6.00;4.50;;;;;;;19.62;40.04;102117.59;6180354;23;20333;-60
2021/09/21 09:50:53;;;;;;;4.50;3.97;;;;;;;19.91;37.53;102115.28;6180025;23;20157;-58
2021/09/21 09:53:23;;;;;;;4.70;4.07;;;;;;;19.82;36.48;102116.03;6177670;23;20518;-60
2021/09/21 09:55:52;;;;;;;7.00;3.60;;;;;;;19.87;36.43;102112.59;6178654;23;20157;-61
2021/09/21 09:58:20;;;;;;;5.20;4.13;;;;;;;19.84;37.89;102112.72;6180042;23;20483;-60
2021/09/21 10:00:46;;;;;;;6.27;3.90;;;;;;;19.76;37.54;102120.66;6180180;23;20149;-61
2021/09/21 10:03:12;;;;;;;5.30;4.20;;;;;;;19.82;38.59;102118.84;6172986;23;20157;-61
2021/09/21 10:05:40;;;;;;;6.33;4.13;;;;;;;19.79;37.82;102108.50;6179722;23;20153;-62
2021/09/21 10:08:07;;;;;;;5.00;4.00;;;;;;;20.03;39.26;102117.22;6178549;23;20238;-61
2021/09/21 10:10:34;;;;;;;5.80;4.17;;;;;;;20.05;38.13;102120.34;6179784;23;20149;-61
2021/09/21 10:13:02;;;;;;;5.97;4.10;;;;;;;19.74;38.35;102109.06;6174733;23;20156;-61
2021/09/21 10:15:29;;;;;;;5.87;4.30;;;;;;;20.02;38.34;102124.09;6177269;23;20231;-59
2021/09/21 10:17:57;;;;;;;4.67;4.07;;;;;;;19.91;37.96;102120.91;6174510;23;20580;-59
2021/09/21 10:20:33;;;;;;;9.23;4.43;;;;;;;19.88;37.59;102102.13;6177668;23;20153;-59
2021/09/21 10:23:00;;;;;;;5.83;4.10;;;;;;;20.25;37.28;102126.41;6179002;23;20145;-61
2021/09/21 10:25:40;;;;;;;5.33;4.30;;;;;;;20.49;36.85;102125.41;6178273;23;20161;-61
2021/09/21 10:28:18;;;;;;;6.40;3.90;;;;;;;20.69;36.56;102117.31;6179183;23;20631;-61
2021/09/21 10:30:58;;;;;;;5.33;4.07;;;;;;;20.75;36.49;102104.19;6178423;23;20550;-61
2021/09/21 10:33:28;;;;;;;5.80;4.33;;;;;;;20.82;36.14;102105.94;6176811;23;20153;-59
2021/09/21 10:35:55;;;;;;;5.13;4.23;;;;;;;20.82;36.63;102105.94;6175281;23;20181;-59
2021/09/21 10:38:21;;;;;;;6.63;4.53;;;;;;;20.66;37.14;102111.81;6176842;23;20579;-59
2021/09/21 10:41:00;;;;;;;5.07;4.57;;;;;;;20.75;35.77;102115.47;6175546;23;20239;-59
2021/09/21 10:43:31;;;;;;;5.37;4.07;;;;;;;20.81;35.26;102115.59;6177321;23;20505;-61
2021/09/21 10:46:08;;;;;;;8.50;4.03;;;;;;;20.46;36.21;102086.13;6178890;23;20154;-59
2021/09/21 10:48:36;;;;;;;4.40;3.97;;;;;;;20.58;35.84;102125.41;6180482;23;20188;-62
2021/09/21 10:51:05;;;;;;;5.90;4.20;;;;;;;20.20;36.61;102133.44;6179483;23;20157;-61
2021/09/21 10:53:31;;;;;;;4.80;4.30;;;;;;;20.28;36.46;102126.28;6179897;23;20204;-59
2021/09/21 10:56:01;;;;;;;5.87;4.00;;;;;;;20.39;36.09;102129.44;6174127;23;20542;-59
2021/09/21 10:58:26;;;;;;;6.07;4.20;;;;;;;20.38;36.14;102099.72;6177913;23;20153;-59
2021/09/21 11:00:52;;;;;;;5.83;4.00;;;;;;;20.54;36.05;102124.81;6180617;23;20154;-61
2021/09/21 11:03:18;;;;;;;4.60;4.10;;;;;;;20.65;35.67;102122.31;6180194;23;20215;-61
2021/09/21 11:05:46;;;;;;;6.37;4.70;;;;;;;20.82;36.08;102117.97;6180419;23;20183;-59
2021/09/21 11:08:13;;;;;;;5.40;4.70;;;;;;;20.88;36.88;102124.53;6180555;23;20176;-59
2021/09/21 11:10:49;;;;;;;5.80;4.50;;;;;;;20.80;36.10;102111.22;6180325;23;20442;-59
2021/09/21 11:13:18;;;;;;;6.50;4.63;;;;;;;21.10;36.82;102110.34;6178596;23;20152;-59
2021/09/21 11:15:46;;;;;;;5.73;4.23;;;;;;;21.17;34.81;102118.47;6180255;23;20288;-58
2021/09/21 11:18:15;;;;;;;4.43;4.03;;;;;;;20.77;34.99;102118.56;6179865;23;20740;-59
2021/09/21 11:20:51;;;;;;;4.73;4.20;;;;;;;20.54;35.45;102118.38;6178017;23;20165;-59
2021/09/21 11:23:18;;;;;;;5.30;3.80;;;;;;;20.56;35.36;102127.13;6179919;23;20145;-61
2021/09/21 11:25:45;;;;;;;5.30;4.10;;;;;;;20.25;35.69;102118.75;6179380;23;20159;-59
2021/09/21 11:28:13;;;;;;;4.97;4.00;;;;;;;20.20;35.73;102118.56;6178884;23;20240;-61
2021/09/21 11:30:39;;;;;;;5.03;4.20;;;;;;;20.13;35.49;102110.41;6178804;23;20200;-61
2021/09/21 11:33:24;;;;;;;4.23;3.77;;;;;;;20.19;36.58;102105.72;6178981;23;20173;-60